This is the latest recevied weather packets stored in our database for station/object OK1KKY-18. If no packets are shown the sender has not sent any weather packets the latest 10 day(s).
| Time | Temp. | Humidity | Pressure | Rain* | Wind** | Luminosity | Snow |
|---|---|---|---|---|---|---|---|
| 1777588068 | 5° C | 64% | 1029.7 hPa | - | - | - | - |
| 1777587462 | 4.44° C | 65% | 1029.6 hPa | - | - | - | - |
| 1777586862 | 3.89° C | 67% | 1029.7 hPa | - | - | - | - |
| 1777586262 | 3.89° C | 67% | 1029.6 hPa | - | - | - | - |
| 1777585662 | 3.89° C | 68% | 1029.7 hPa | - | - | - | - |
| 1777585062 | 3.89° C | 67% | 1029.7 hPa | - | - | - | - |
| 1777584462 | 3.89° C | 67% | 1029.6 hPa | - | - | - | - |
| 1777583862 | 3.89° C | 67% | 1029.5 hPa | - | - | - | - |
| 1777583262 | 3.89° C | 65% | 1029.6 hPa | - | - | - | - |
| 1777582662 | 4.44° C | 64% | 1029.8 hPa | - | - | - | - |
| 1777582062 | 3.89° C | 65% | 1029.8 hPa | - | - | - | - |
| 1777581462 | 4.44° C | 64% | 1029.6 hPa | - | - | - | - |
| 1777580862 | 4.44° C | 64% | 1029.5 hPa | - | - | - | - |
| 1777580262 | 4.44° C | 63% | 1029.5 hPa | - | - | - | - |
| 1777579662 | 4.44° C | 63% | 1029.4 hPa | - | - | - | - |
| 1777579062 | 4.44° C | 64% | 1029.5 hPa | - | - | - | - |
| 1777578462 | 5° C | 62% | 1029.4 hPa | - | - | - | - |
| 1777577867 | 5° C | 63% | 1029.3 hPa | - | - | - | - |
| 1777577264 | 5° C | 61% | 1029.2 hPa | - | - | - | - |
| 1777576662 | 5.56° C | 59% | 1029.3 hPa | - | - | - | - |
| 1777576062 | 5.56° C | 61% | 1029.2 hPa | - | - | - | - |
| 1777575462 | 6.11° C | 59% | 1029.1 hPa | - | - | - | - |
| 1777574862 | 6.11° C | 57% | 1029.2 hPa | - | - | - | - |
| 1777574262 | 6.67° C | 54% | 1029.3 hPa | - | - | - | - |
| 1777573662 | 7.22° C | 53% | 1029 hPa | - | - | - | - |
* Rain since midnight (hover to see other rain measurements)
** Current wind speed in m/s (hover to see current wind gust speed)